sensor_id;sensor_type;location;lat;lon;timestamp;temperature;humidity
52965;DHT22;42923;53.220;6.528;2023-07-29T00:00:41;18.00;99.90
52965;DHT22;42923;53.220;6.528;2023-07-29T00:03:08;18.10;99.90
52965;DHT22;42923;53.220;6.528;2023-07-29T00:05:34;18.10;99.90
52965;DHT22;42923;53.220;6.528;2023-07-29T00:07:59;18.10;99.90
52965;DHT22;42923;53.220;6.528;2023-07-29T00:10:26;18.10;99.90
52965;DHT22;42923;53.220;6.528;2023-07-29T00:12:51;18.10;99.90
52965;DHT22;42923;53.220;6.528;2023-07-29T00:15:18;18.10;99.90
52965;DHT22;42923;53.220;6.528;2023-07-29T00:17:43;18.20;99.90
52965;DHT22;42923;53.220;6.528;2023-07-29T00:20:09;18.10;99.90
52965;DHT22;42923;53.220;6.528;2023-07-29T00:22:35;18.20;99.90
52965;DHT22;42923;53.220;6.528;2023-07-29T00:25:01;18.20;99.90
52965;DHT22;42923;53.220;6.528;2023-07-29T00:27:27;18.10;99.90
52965;DHT22;42923;53.220;6.528;2023-07-29T00:29:54;18.20;99.90
52965;DHT22;42923;53.220;6.528;2023-07-29T00:32:20;18.20;99.90
52965;DHT22;42923;53.220;6.528;2023-07-29T00:34:45;18.10;99.90
52965;DHT22;42923;53.220;6.528;2023-07-29T00:37:11;18.10;99.90
52965;DHT22;42923;53.220;6.528;2023-07-29T00:39:38;18.10;99.90
52965;DHT22;42923;53.220;6.528;2023-07-29T00:42:04;18.10;99.90
52965;DHT22;42923;53.220;6.528;2023-07-29T00:44:30;18.10;99.90
52965;DHT22;42923;53.220;6.528;2023-07-29T00:47:02;18.10;99.90
52965;DHT22;42923;53.220;6.528;2023-07-29T00:49:29;18.10;99.90
52965;DHT22;42923;53.220;6.528;2023-07-29T00:51:55;18.10;99.90
52965;DHT22;42923;53.220;6.528;2023-07-29T00:54:21;18.00;99.90
52965;DHT22;42923;53.220;6.528;2023-07-29T00:56:47;18.10;99.90
52965;DHT22;42923;53.220;6.528;2023-07-29T00:59:13;18.10;99.90
52965;DHT22;42923;53.220;6.528;2023-07-29T01:01:38;18.10;99.90
52965;DHT22;42923;53.220;6.528;2023-07-29T01:04:04;18.10;99.90
52965;DHT22;42923;53.220;6.528;2023-07-29T01:09:16;18.10;99.90
52965;DHT22;42923;53.220;6.528;2023-07-29T01:14:41;18.00;99.90
52965;DHT22;42923;53.220;6.528;2023-07-29T01:17:22;18.00;99.90
52965;DHT22;42923;53.220;6.528;2023-07-29T01:20:02;18.00;99.90
52965;DHT22;42923;53.220;6.528;2023-07-29T01:22:34;18.00;99.90
52965;DHT22;42923;53.220;6.528;2023-07-29T01:25:00;17.90;99.90
52965;DHT22;42923;53.220;6.528;2023-07-29T01:27:26;17.90;99.90
52965;DHT22;42923;53.220;6.528;2023-07-29T01:29:54;17.90;99.90
52965;DHT22;42923;53.220;6.528;2023-07-29T01:33:18;17.90;99.90
52965;DHT22;42923;53.220;6.528;2023-07-29T01:35:40;17.90;99.90
52965;DHT22;42923;53.220;6.528;2023-07-29T01:38:16;17.80;99.90
52965;DHT22;42923;53.220;6.528;2023-07-29T01:40:43;17.70;99.90
52965;DHT22;42923;53.220;6.528;2023-07-29T01:43:10;17.70;99.90
52965;DHT22;42923;53.220;6.528;2023-07-29T01:45:36;17.60;99.90
52965;DHT22;42923;53.220;6.528;2023-07-29T01:48:05;17.60;99.90
52965;DHT22;42923;53.220;6.528;2023-07-29T01:50:31;17.60;99.90
52965;DHT22;42923;53.220;6.528;2023-07-29T01:52:58;17.40;99.90
52965;DHT22;42923;53.220;6.528;2023-07-29T01:55:24;17.40;99.90
52965;DHT22;42923;53.220;6.528;2023-07-29T01:57:49;17.30;99.90
52965;DHT22;42923;53.220;6.528;2023-07-29T02:00:17;17.30;99.90
52965;DHT22;42923;53.220;6.528;2023-07-29T02:02:45;17.20;99.90
52965;DHT22;42923;53.220;6.528;2023-07-29T02:05:10;17.20;99.90
52965;DHT22;42923;53.220;6.528;2023-07-29T02:07:36;17.20;99.90
52965;DHT22;42923;53.220;6.528;2023-07-29T02:10:02;17.10;99.90
52965;DHT22;42923;53.220;6.528;2023-07-29T02:12:28;17.10;99.90
52965;DHT22;42923;53.220;6.528;2023-07-29T02:14:54;17.00;99.90
52965;DHT22;42923;53.220;6.528;2023-07-29T02:17:20;17.00;99.90
52965;DHT22;42923;53.220;6.528;2023-07-29T02:19:46;17.00;99.90
52965;DHT22;42923;53.220;6.528;2023-07-29T02:22:17;16.90;99.90
52965;DHT22;42923;53.220;6.528;2023-07-29T02:24:44;16.90;99.90
52965;DHT22;42923;53.220;6.528;2023-07-29T02:27:09;16.90;99.90
52965;DHT22;42923;53.220;6.528;2023-07-29T02:29:35;16.80;99.90
52965;DHT22;42923;53.220;6.528;2023-07-29T02:32:01;16.80;99.90
52965;DHT22;42923;53.220;6.528;2023-07-29T02:34:26;16.80;99.90
52965;DHT22;42923;53.220;6.528;2023-07-29T02:36:52;16.70;99.90
52965;DHT22;42923;53.220;6.528;2023-07-29T02:39:18;16.70;99.90
52965;DHT22;42923;53.220;6.528;2023-07-29T02:41:44;16.60;99.90
52965;DHT22;42923;53.220;6.528;2023-07-29T02:44:10;16.60;99.90
52965;DHT22;42923;53.220;6.528;2023-07-29T02:46:35;16.60;99.90
52965;DHT22;42923;53.220;6.528;2023-07-29T02:49:03;16.60;99.90
52965;DHT22;42923;53.220;6.528;2023-07-29T02:51:32;16.50;99.90
52965;DHT22;42923;53.220;6.528;2023-07-29T02:53:58;16.50;99.90
52965;DHT22;42923;53.220;6.528;2023-07-29T02:56:24;16.50;99.90
52965;DHT22;42923;53.220;6.528;2023-07-29T02:58:49;16.50;99.90
52965;DHT22;42923;53.220;6.528;2023-07-29T03:01:17;16.30;99.90
52965;DHT22;42923;53.220;6.528;2023-07-29T03:03:42;16.40;99.90
52965;DHT22;42923;53.220;6.528;2023-07-29T03:06:13;16.40;99.90
52965;DHT22;42923;53.220;6.528;2023-07-29T03:08:40;16.40;99.90
52965;DHT22;42923;53.220;6.528;2023-07-29T03:11:16;16.30;99.90
52965;DHT22;42923;53.220;6.528;2023-07-29T03:13:43;16.40;99.90
52965;DHT22;42923;53.220;6.528;2023-07-29T03:16:13;16.40;99.90
52965;DHT22;42923;53.220;6.528;2023-07-29T03:18:44;16.30;99.90
52965;DHT22;42923;53.220;6.528;2023-07-29T03:21:10;16.30;99.90
52965;DHT22;42923;53.220;6.528;2023-07-29T03:23:37;16.30;99.90
52965;DHT22;42923;53.220;6.528;2023-07-29T03:26:03;16.20;99.90
52965;DHT22;42923;53.220;6.528;2023-07-29T03:28:42;16.20;99.90
52965;DHT22;42923;53.220;6.528;2023-07-29T03:31:09;16.20;99.90
52965;DHT22;42923;53.220;6.528;2023-07-29T03:33:35;16.20;99.90
52965;DHT22;42923;53.220;6.528;2023-07-29T03:36:01;16.20;99.90
52965;DHT22;42923;53.220;6.528;2023-07-29T03:38:26;16.20;99.90
52965;DHT22;42923;53.220;6.528;2023-07-29T03:40:53;16.10;99.90
52965;DHT22;42923;53.220;6.528;2023-07-29T03:43:19;16.00;99.90
52965;DHT22;42923;53.220;6.528;2023-07-29T03:45:45;16.10;99.90
52965;DHT22;42923;53.220;6.528;2023-07-29T03:48:10;16.10;99.90
52965;DHT22;42923;53.220;6.528;2023-07-29T03:50:37;16.00;99.90
52965;DHT22;42923;53.220;6.528;2023-07-29T03:53:03;16.10;99.90
52965;DHT22;42923;53.220;6.528;2023-07-29T03:55:29;16.00;99.90
52965;DHT22;42923;53.220;6.528;2023-07-29T03:57:56;16.00;99.90
52965;DHT22;42923;53.220;6.528;2023-07-29T04:00:23;16.00;99.90
52965;DHT22;42923;53.220;6.528;2023-07-29T04:02:49;16.00;99.90
52965;DHT22;42923;53.220;6.528;2023-07-29T04:05:15;16.00;99.90
52965;DHT22;42923;53.220;6.528;2023-07-29T04:07:41;15.90;99.90
52965;DHT22;42923;53.220;6.528;2023-07-29T04:10:07;15.90;99.90
52965;DHT22;42923;53.220;6.528;2023-07-29T04:12:33;16.00;99.90
52965;DHT22;42923;53.220;6.528;2023-07-29T04:14:59;15.90;99.90
52965;DHT22;42923;53.220;6.528;2023-07-29T04:17:25;16.00;99.90
52965;DHT22;42923;53.220;6.528;2023-07-29T04:19:50;16.00;99.90
52965;DHT22;42923;53.220;6.528;2023-07-29T04:22:18;16.00;99.90
52965;DHT22;42923;53.220;6.528;2023-07-29T04:24:43;16.00;99.90
52965;DHT22;42923;53.220;6.528;2023-07-29T04:27:09;16.00;99.90
52965;DHT22;42923;53.220;6.528;2023-07-29T04:29:35;16.10;99.90
52965;DHT22;42923;53.220;6.528;2023-07-29T04:32:02;16.10;99.90
52965;DHT22;42923;53.220;6.528;2023-07-29T04:34:28;16.10;99.90
52965;DHT22;42923;53.220;6.528;2023-07-29T04:36:54;16.20;99.90
52965;DHT22;42923;53.220;6.528;2023-07-29T04:39:20;16.20;99.90
52965;DHT22;42923;53.220;6.528;2023-07-29T04:41:46;16.30;99.90
52965;DHT22;42923;53.220;6.528;2023-07-29T04:44:12;16.20;99.90
52965;DHT22;42923;53.220;6.528;2023-07-29T04:46:38;16.30;99.90
52965;DHT22;42923;53.220;6.528;2023-07-29T04:49:04;16.40;99.90
52965;DHT22;42923;53.220;6.528;2023-07-29T04:51:31;16.40;99.90
52965;DHT22;42923;53.220;6.528;2023-07-29T04:54:00;16.40;99.90
52965;DHT22;42923;53.220;6.528;2023-07-29T04:56:26;16.50;99.90
52965;DHT22;42923;53.220;6.528;2023-07-29T04:58:52;16.50;99.90
52965;DHT22;42923;53.220;6.528;2023-07-29T05:01:18;16.70;99.90
52965;DHT22;42923;53.220;6.528;2023-07-29T05:03:44;16.60;99.90
52965;DHT22;42923;53.220;6.528;2023-07-29T05:06:11;16.70;99.90
52965;DHT22;42923;53.220;6.528;2023-07-29T05:08:37;16.70;99.90
52965;DHT22;42923;53.220;6.528;2023-07-29T05:11:02;16.80;99.90
52965;DHT22;42923;53.220;6.528;2023-07-29T05:13:28;16.80;99.90
52965;DHT22;42923;53.220;6.528;2023-07-29T05:15:54;16.90;99.90
52965;DHT22;42923;53.220;6.528;2023-07-29T05:18:20;16.90;99.90
52965;DHT22;42923;53.220;6.528;2023-07-29T05:20:47;16.90;99.90
52965;DHT22;42923;53.220;6.528;2023-07-29T05:23:13;17.00;99.90
52965;DHT22;42923;53.220;6.528;2023-07-29T05:25:39;17.00;99.90
52965;DHT22;42923;53.220;6.528;2023-07-29T05:28:05;17.00;99.90
52965;DHT22;42923;53.220;6.528;2023-07-29T05:30:32;17.10;99.90
52965;DHT22;42923;53.220;6.528;2023-07-29T05:33:00;17.20;99.90
52965;DHT22;42923;53.220;6.528;2023-07-29T05:35:26;17.20;99.90
52965;DHT22;42923;53.220;6.528;2023-07-29T05:37:52;17.20;99.90
52965;DHT22;42923;53.220;6.528;2023-07-29T05:40:18;17.30;99.90
52965;DHT22;42923;53.220;6.528;2023-07-29T05:42:44;17.30;99.90
52965;DHT22;42923;53.220;6.528;2023-07-29T05:45:11;17.30;99.90
52965;DHT22;42923;53.220;6.528;2023-07-29T05:47:37;17.40;99.90
52965;DHT22;42923;53.220;6.528;2023-07-29T05:50:03;17.40;99.90
52965;DHT22;42923;53.220;6.528;2023-07-29T05:52:33;17.40;99.90
52965;DHT22;42923;53.220;6.528;2023-07-29T05:54:59;17.50;99.90
52965;DHT22;42923;53.220;6.528;2023-07-29T05:57:25;17.50;99.90
52965;DHT22;42923;53.220;6.528;2023-07-29T05:59:51;17.50;99.90
52965;DHT22;42923;53.220;6.528;2023-07-29T06:02:16;17.60;99.90
52965;DHT22;42923;53.220;6.528;2023-07-29T06:04:42;17.60;99.90
52965;DHT22;42923;53.220;6.528;2023-07-29T06:07:08;17.60;99.90
52965;DHT22;42923;53.220;6.528;2023-07-29T06:09:34;17.60;99.90
52965;DHT22;42923;53.220;6.528;2023-07-29T06:12:00;17.70;99.90
52965;DHT22;42923;53.220;6.528;2023-07-29T06:14:26;17.70;99.90
52965;DHT22;42923;53.220;6.528;2023-07-29T06:16:52;17.80;99.90
52965;DHT22;42923;53.220;6.528;2023-07-29T06:19:19;17.80;99.90
52965;DHT22;42923;53.220;6.528;2023-07-29T06:21:46;17.90;99.90
52965;DHT22;42923;53.220;6.528;2023-07-29T06:24:11;17.90;99.90
52965;DHT22;42923;53.220;6.528;2023-07-29T06:26:37;17.90;99.90
52965;DHT22;42923;53.220;6.528;2023-07-29T06:29:03;18.00;99.90
52965;DHT22;42923;53.220;6.528;2023-07-29T06:31:29;18.10;99.90
52965;DHT22;42923;53.220;6.528;2023-07-29T06:33:55;18.30;99.90
52965;DHT22;42923;53.220;6.528;2023-07-29T06:36:21;18.50;99.90
52965;DHT22;42923;53.220;6.528;2023-07-29T06:38:47;18.70;99.90
52965;DHT22;42923;53.220;6.528;2023-07-29T06:41:12;18.90;99.90
52965;DHT22;42923;53.220;6.528;2023-07-29T06:43:38;19.00;99.90
52965;DHT22;42923;53.220;6.528;2023-07-29T06:46:04;19.20;99.90
52965;DHT22;42923;53.220;6.528;2023-07-29T06:48:30;19.20;99.90
52965;DHT22;42923;53.220;6.528;2023-07-29T06:50:55;19.30;99.90
52965;DHT22;42923;53.220;6.528;2023-07-29T06:53:26;19.30;99.90
52965;DHT22;42923;53.220;6.528;2023-07-29T06:55:52;19.40;99.90
52965;DHT22;42923;53.220;6.528;2023-07-29T06:58:18;19.40;99.90
52965;DHT22;42923;53.220;6.528;2023-07-29T07:00:43;19.40;99.90
52965;DHT22;42923;53.220;6.528;2023-07-29T07:03:09;19.50;99.90
52965;DHT22;42923;53.220;6.528;2023-07-29T07:05:35;19.50;99.90
52965;DHT22;42923;53.220;6.528;2023-07-29T07:08:01;19.60;99.90
52965;DHT22;42923;53.220;6.528;2023-07-29T07:10:26;19.70;99.90
52965;DHT22;42923;53.220;6.528;2023-07-29T07:12:52;19.80;99.90
52965;DHT22;42923;53.220;6.528;2023-07-29T07:15:18;19.90;99.90
52965;DHT22;42923;53.220;6.528;2023-07-29T07:17:44;19.90;99.90
52965;DHT22;42923;53.220;6.528;2023-07-29T07:20:10;20.00;99.90
52965;DHT22;42923;53.220;6.528;2023-07-29T07:22:36;20.00;99.90
52965;DHT22;42923;53.220;6.528;2023-07-29T07:25:02;20.00;99.90
52965;DHT22;42923;53.220;6.528;2023-07-29T07:27:27;20.00;99.90
52965;DHT22;42923;53.220;6.528;2023-07-29T07:29:53;20.00;99.90
52965;DHT22;42923;53.220;6.528;2023-07-29T07:32:19;20.00;99.90
52965;DHT22;42923;53.220;6.528;2023-07-29T07:34:44;20.00;99.90
52965;DHT22;42923;53.220;6.528;2023-07-29T07:37:10;20.10;99.90
52965;DHT22;42923;53.220;6.528;2023-07-29T07:39:36;20.10;99.90
52965;DHT22;42923;53.220;6.528;2023-07-29T07:42:02;20.20;99.90
52965;DHT22;42923;53.220;6.528;2023-07-29T07:44:27;20.20;99.90
52965;DHT22;42923;53.220;6.528;2023-07-29T07:46:53;20.30;99.90
52965;DHT22;42923;53.220;6.528;2023-07-29T07:49:19;20.40;99.90
52965;DHT22;42923;53.220;6.528;2023-07-29T07:51:45;20.50;99.90
52965;DHT22;42923;53.220;6.528;2023-07-29T07:54:11;20.50;99.90
52965;DHT22;42923;53.220;6.528;2023-07-29T07:56:36;20.50;99.90
52965;DHT22;42923;53.220;6.528;2023-07-29T07:59:02;20.50;99.90
52965;DHT22;42923;53.220;6.528;2023-07-29T08:01:37;20.70;99.90
52965;DHT22;42923;53.220;6.528;2023-07-29T08:04:03;20.90;99.90
52965;DHT22;42923;53.220;6.528;2023-07-29T08:06:29;21.00;99.90
52965;DHT22;42923;53.220;6.528;2023-07-29T08:08:56;21.10;99.90
52965;DHT22;42923;53.220;6.528;2023-07-29T08:11:21;21.30;99.90
52965;DHT22;42923;53.220;6.528;2023-07-29T08:13:47;21.40;99.90
52965;DHT22;42923;53.220;6.528;2023-07-29T08:16:13;21.50;99.90
52965;DHT22;42923;53.220;6.528;2023-07-29T08:18:39;21.60;99.90
52965;DHT22;42923;53.220;6.528;2023-07-29T08:21:05;21.60;99.90
52965;DHT22;42923;53.220;6.528;2023-07-29T08:23:34;21.70;99.90
52965;DHT22;42923;53.220;6.528;2023-07-29T08:26:01;22.00;99.90
52965;DHT22;42923;53.220;6.528;2023-07-29T08:28:29;22.30;99.90
52965;DHT22;42923;53.220;6.528;2023-07-29T08:30:55;22.60;99.90
52965;DHT22;42923;53.220;6.528;2023-07-29T08:33:20;22.80;99.90
52965;DHT22;42923;53.220;6.528;2023-07-29T08:35:46;22.70;99.90
52965;DHT22;42923;53.220;6.528;2023-07-29T08:38:12;22.60;99.90
52965;DHT22;42923;53.220;6.528;2023-07-29T08:40:44;22.30;99.90
52965;DHT22;42923;53.220;6.528;2023-07-29T08:43:12;22.10;99.90
52965;DHT22;42923;53.220;6.528;2023-07-29T08:45:40;21.90;99.90
52965;DHT22;42923;53.220;6.528;2023-07-29T08:48:08;21.80;99.90
52965;DHT22;42923;53.220;6.528;2023-07-29T08:50:36;21.70;99.90
52965;DHT22;42923;53.220;6.528;2023-07-29T08:53:05;21.70;99.90
52965;DHT22;42923;53.220;6.528;2023-07-29T08:55:32;21.70;99.90
52965;DHT22;42923;53.220;6.528;2023-07-29T08:57:59;21.80;99.90
52965;DHT22;42923;53.220;6.528;2023-07-29T09:00:25;22.00;99.90
52965;DHT22;42923;53.220;6.528;2023-07-29T09:02:51;22.40;99.90
52965;DHT22;42923;53.220;6.528;2023-07-29T09:05:17;22.70;99.90
52965;DHT22;42923;53.220;6.528;2023-07-29T09:07:44;22.90;99.90
52965;DHT22;42923;53.220;6.528;2023-07-29T09:10:13;23.10;99.90
52965;DHT22;42923;53.220;6.528;2023-07-29T09:12:39;23.10;99.90
52965;DHT22;42923;53.220;6.528;2023-07-29T09:15:06;22.90;99.90
52965;DHT22;42923;53.220;6.528;2023-07-29T09:17:33;22.80;99.90
52965;DHT22;42923;53.220;6.528;2023-07-29T09:19:59;22.60;99.90
52965;DHT22;42923;53.220;6.528;2023-07-29T09:22:27;22.50;99.90
52965;DHT22;42923;53.220;6.528;2023-07-29T09:24:53;22.40;99.90
52965;DHT22;42923;53.220;6.528;2023-07-29T09:27:26;22.20;99.90
52965;DHT22;42923;53.220;6.528;2023-07-29T09:29:53;22.20;99.90
52965;DHT22;42923;53.220;6.528;2023-07-29T09:32:20;22.30;99.90
52965;DHT22;42923;53.220;6.528;2023-07-29T09:34:46;22.50;99.90
52965;DHT22;42923;53.220;6.528;2023-07-29T09:37:21;22.70;99.90
52965;DHT22;42923;53.220;6.528;2023-07-29T09:39:50;22.80;99.90
52965;DHT22;42923;53.220;6.528;2023-07-29T09:42:20;22.80;99.90
52965;DHT22;42923;53.220;6.528;2023-07-29T09:44:50;22.80;99.90
52965;DHT22;42923;53.220;6.528;2023-07-29T09:47:23;22.70;99.90
52965;DHT22;42923;53.220;6.528;2023-07-29T09:49:50;22.70;99.90
52965;DHT22;42923;53.220;6.528;2023-07-29T09:52:17;22.80;99.90
52965;DHT22;42923;53.220;6.528;2023-07-29T09:54:44;23.00;99.90
52965;DHT22;42923;53.220;6.528;2023-07-29T09:57:18;23.00;99.90
52965;DHT22;42923;53.220;6.528;2023-07-29T09:59:54;23.00;99.90
52965;DHT22;42923;53.220;6.528;2023-07-29T10:02:20;23.10;99.90
52965;DHT22;42923;53.220;6.528;2023-07-29T10:04:47;23.20;99.90
52965;DHT22;42923;53.220;6.528;2023-07-29T10:07:14;23.10;99.90
52965;DHT22;42923;53.220;6.528;2023-07-29T10:09:42;23.10;99.90
52965;DHT22;42923;53.220;6.528;2023-07-29T10:12:09;23.00;99.90
52965;DHT22;42923;53.220;6.528;2023-07-29T10:14:38;23.20;99.90
52965;DHT22;42923;53.220;6.528;2023-07-29T10:17:05;23.50;99.90
52965;DHT22;42923;53.220;6.528;2023-07-29T10:19:31;23.70;99.90
52965;DHT22;42923;53.220;6.528;2023-07-29T10:21:59;23.90;99.90
52965;DHT22;42923;53.220;6.528;2023-07-29T10:24:32;24.00;99.90
52965;DHT22;42923;53.220;6.528;2023-07-29T10:27:00;24.20;99.90
52965;DHT22;42923;53.220;6.528;2023-07-29T10:29:36;24.30;99.90
52965;DHT22;42923;53.220;6.528;2023-07-29T10:32:04;24.50;99.90
52965;DHT22;42923;53.220;6.528;2023-07-29T10:34:31;24.50;99.90
52965;DHT22;42923;53.220;6.528;2023-07-29T10:36:59;24.70;99.90
52965;DHT22;42923;53.220;6.528;2023-07-29T10:39:25;24.90;99.90
52965;DHT22;42923;53.220;6.528;2023-07-29T10:42:02;25.40;99.90
52965;DHT22;42923;53.220;6.528;2023-07-29T10:50:01;26.70;99.90
52965;DHT22;42923;53.220;6.528;2023-07-29T10:52:30;26.80;99.90
52965;DHT22;42923;53.220;6.528;2023-07-29T10:54:56;26.60;99.90
52965;DHT22;42923;53.220;6.528;2023-07-29T10:57:35;26.20;99.90
52965;DHT22;42923;53.220;6.528;2023-07-29T11:00:02;25.60;99.90
52965;DHT22;42923;53.220;6.528;2023-07-29T11:02:36;25.10;99.90
52965;DHT22;42923;53.220;6.528;2023-07-29T11:05:18;24.70;99.90
52965;DHT22;42923;53.220;6.528;2023-07-29T11:07:45;24.40;99.90
52965;DHT22;42923;53.220;6.528;2023-07-29T11:10:13;24.10;99.90
52965;DHT22;42923;53.220;6.528;2023-07-29T11:12:51;23.80;99.90
52965;DHT22;42923;53.220;6.528;2023-07-29T11:15:19;23.50;99.90
52965;DHT22;42923;53.220;6.528;2023-07-29T11:17:59;23.00;99.90
52965;DHT22;42923;53.220;6.528;2023-07-29T11:20:30;22.30;99.90
52965;DHT22;42923;53.220;6.528;2023-07-29T11:22:58;21.60;99.90
52965;DHT22;42923;53.220;6.528;2023-07-29T11:25:25;21.20;99.90
52965;DHT22;42923;53.220;6.528;2023-07-29T11:27:52;21.00;99.90
52965;DHT22;42923;53.220;6.528;2023-07-29T11:30:19;21.00;99.90
52965;DHT22;42923;53.220;6.528;2023-07-29T11:32:45;21.10;99.90
52965;DHT22;42923;53.220;6.528;2023-07-29T11:35:14;21.20;99.90
52965;DHT22;42923;53.220;6.528;2023-07-29T11:37:41;21.20;99.90
52965;DHT22;42923;53.220;6.528;2023-07-29T11:40:08;21.30;99.90
52965;DHT22;42923;53.220;6.528;2023-07-29T11:42:37;21.30;99.90
52965;DHT22;42923;53.220;6.528;2023-07-29T11:45:04;21.40;99.90
52965;DHT22;42923;53.220;6.528;2023-07-29T11:47:32;21.80;99.90
52965;DHT22;42923;53.220;6.528;2023-07-29T11:50:04;22.00;99.90
52965;DHT22;42923;53.220;6.528;2023-07-29T11:52:35;22.30;99.90
52965;DHT22;42923;53.220;6.528;2023-07-29T11:55:02;22.30;99.90
52965;DHT22;42923;53.220;6.528;2023-07-29T11:57:29;22.20;99.90
52965;DHT22;42923;53.220;6.528;2023-07-29T11:59:55;22.10;99.90
52965;DHT22;42923;53.220;6.528;2023-07-29T12:02:22;21.90;99.90
52965;DHT22;42923;53.220;6.528;2023-07-29T12:04:49;22.10;99.90
52965;DHT22;42923;53.220;6.528;2023-07-29T12:07:17;22.40;99.90
52965;DHT22;42923;53.220;6.528;2023-07-29T12:09:43;22.50;99.90
52965;DHT22;42923;53.220;6.528;2023-07-29T12:12:09;22.60;99.90
52965;DHT22;42923;53.220;6.528;2023-07-29T12:14:35;22.60;99.90
52965;DHT22;42923;53.220;6.528;2023-07-29T12:17:02;22.70;99.90
52965;DHT22;42923;53.220;6.528;2023-07-29T12:19:36;22.70;99.90
52965;DHT22;42923;53.220;6.528;2023-07-29T12:22:03;22.90;99.90
52965;DHT22;42923;53.220;6.528;2023-07-29T12:24:30;23.10;99.90
52965;DHT22;42923;53.220;6.528;2023-07-29T12:26:57;23.40;99.90
52965;DHT22;42923;53.220;6.528;2023-07-29T12:29:22;23.50;99.90
52965;DHT22;42923;53.220;6.528;2023-07-29T12:31:49;23.70;99.90
52965;DHT22;42923;53.220;6.528;2023-07-29T12:34:22;24.00;99.90
52965;DHT22;42923;53.220;6.528;2023-07-29T12:36:49;24.20;99.90
52965;DHT22;42923;53.220;6.528;2023-07-29T12:39:19;24.20;99.90
52965;DHT22;42923;53.220;6.528;2023-07-29T12:41:45;24.10;99.90
52965;DHT22;42923;53.220;6.528;2023-07-29T12:44:11;24.10;99.90
52965;DHT22;42923;53.220;6.528;2023-07-29T12:46:37;23.90;99.90
52965;DHT22;42923;53.220;6.528;2023-07-29T12:49:03;23.70;99.90
52965;DHT22;42923;53.220;6.528;2023-07-29T12:51:28;23.90;99.90
52965;DHT22;42923;53.220;6.528;2023-07-29T12:53:54;24.00;99.90
52965;DHT22;42923;53.220;6.528;2023-07-29T12:56:20;24.10;99.90
52965;DHT22;42923;53.220;6.528;2023-07-29T12:58:46;23.90;99.90
52965;DHT22;42923;53.220;6.528;2023-07-29T13:01:12;23.80;99.90
52965;DHT22;42923;53.220;6.528;2023-07-29T13:03:49;23.60;99.90
52965;DHT22;42923;53.220;6.528;2023-07-29T13:06:15;23.40;99.90
52965;DHT22;42923;53.220;6.528;2023-07-29T13:08:42;23.30;99.90
52965;DHT22;42923;53.220;6.528;2023-07-29T13:11:08;23.20;99.90
52965;DHT22;42923;53.220;6.528;2023-07-29T13:13:34;23.20;99.90
52965;DHT22;42923;53.220;6.528;2023-07-29T13:16:00;23.20;99.90
52965;DHT22;42923;53.220;6.528;2023-07-29T13:18:26;23.10;99.90
52965;DHT22;42923;53.220;6.528;2023-07-29T13:20:53;23.00;99.90
52965;DHT22;42923;53.220;6.528;2023-07-29T13:23:19;22.90;99.90
52965;DHT22;42923;53.220;6.528;2023-07-29T13:25:45;22.80;99.90
52965;DHT22;42923;53.220;6.528;2023-07-29T13:28:11;22.70;99.90
52965;DHT22;42923;53.220;6.528;2023-07-29T13:30:39;22.80;99.90
52965;DHT22;42923;53.220;6.528;2023-07-29T13:33:06;23.40;99.90
52965;DHT22;42923;53.220;6.528;2023-07-29T13:35:31;23.80;99.90
52965;DHT22;42923;53.220;6.528;2023-07-29T13:37:57;23.80;99.90
52965;DHT22;42923;53.220;6.528;2023-07-29T13:40:23;23.60;99.90
52965;DHT22;42923;53.220;6.528;2023-07-29T13:42:49;23.40;99.90
52965;DHT22;42923;53.220;6.528;2023-07-29T13:45:15;23.10;99.90
52965;DHT22;42923;53.220;6.528;2023-07-29T13:47:40;22.90;99.90
52965;DHT22;42923;53.220;6.528;2023-07-29T13:50:06;22.70;99.90
52965;DHT22;42923;53.220;6.528;2023-07-29T13:52:33;22.60;99.90
52965;DHT22;42923;53.220;6.528;2023-07-29T13:54:59;22.50;99.90
52965;DHT22;42923;53.220;6.528;2023-07-29T13:57:25;22.50;99.90
52965;DHT22;42923;53.220;6.528;2023-07-29T13:59:51;22.50;99.90
52965;DHT22;42923;53.220;6.528;2023-07-29T14:02:16;22.70;99.90
52965;DHT22;42923;53.220;6.528;2023-07-29T14:04:43;23.40;99.90
52965;DHT22;42923;53.220;6.528;2023-07-29T14:07:09;24.00;99.90
52965;DHT22;42923;53.220;6.528;2023-07-29T14:09:35;24.50;99.90
52965;DHT22;42923;53.220;6.528;2023-07-29T14:12:00;25.10;99.90
52965;DHT22;42923;53.220;6.528;2023-07-29T14:14:26;25.70;99.90
52965;DHT22;42923;53.220;6.528;2023-07-29T14:16:52;26.30;99.90
52965;DHT22;42923;53.220;6.528;2023-07-29T14:19:18;26.40;99.90
52965;DHT22;42923;53.220;6.528;2023-07-29T14:21:43;26.30;99.90
52965;DHT22;42923;53.220;6.528;2023-07-29T14:24:09;26.20;99.90
52965;DHT22;42923;53.220;6.528;2023-07-29T14:26:35;26.70;99.90
52965;DHT22;42923;53.220;6.528;2023-07-29T14:29:00;27.60;99.90
52965;DHT22;42923;53.220;6.528;2023-07-29T14:31:26;28.40;99.90
52965;DHT22;42923;53.220;6.528;2023-07-29T14:33:52;28.90;99.90
52965;DHT22;42923;53.220;6.528;2023-07-29T14:36:18;29.10;99.90
52965;DHT22;42923;53.220;6.528;2023-07-29T14:38:43;29.30;99.90
52965;DHT22;42923;53.220;6.528;2023-07-29T14:41:09;28.80;99.90
52965;DHT22;42923;53.220;6.528;2023-07-29T14:43:35;28.10;99.90
52965;DHT22;42923;53.220;6.528;2023-07-29T14:46:01;27.80;99.90
52965;DHT22;42923;53.220;6.528;2023-07-29T14:48:28;27.40;99.90
52965;DHT22;42923;53.220;6.528;2023-07-29T14:50:54;27.60;99.90
52965;DHT22;42923;53.220;6.528;2023-07-29T14:53:20;27.90;99.90
52965;DHT22;42923;53.220;6.528;2023-07-29T14:55:45;27.90;99.90
52965;DHT22;42923;53.220;6.528;2023-07-29T14:58:11;27.50;99.90
52965;DHT22;42923;53.220;6.528;2023-07-29T15:00:37;26.80;99.90
52965;DHT22;42923;53.220;6.528;2023-07-29T15:03:03;26.10;99.90
52965;DHT22;42923;53.220;6.528;2023-07-29T15:05:28;25.50;99.90
52965;DHT22;42923;53.220;6.528;2023-07-29T15:07:54;25.40;99.90
52965;DHT22;42923;53.220;6.528;2023-07-29T15:10:20;25.70;99.90
52965;DHT22;42923;53.220;6.528;2023-07-29T15:12:47;26.20;99.90
52965;DHT22;42923;53.220;6.528;2023-07-29T15:15:13;26.80;99.90
52965;DHT22;42923;53.220;6.528;2023-07-29T15:17:38;27.00;99.90
52965;DHT22;42923;53.220;6.528;2023-07-29T15:20:04;27.60;99.90
52965;DHT22;42923;53.220;6.528;2023-07-29T15:22:30;27.80;99.90
52965;DHT22;42923;53.220;6.528;2023-07-29T15:24:59;28.10;99.90
52965;DHT22;42923;53.220;6.528;2023-07-29T15:27:27;28.70;99.90
52965;DHT22;42923;53.220;6.528;2023-07-29T15:29:52;29.20;97.90
52965;DHT22;42923;53.220;6.528;2023-07-29T15:32:18;29.40;94.40
52965;DHT22;42923;53.220;6.528;2023-07-29T15:34:44;29.60;92.60
52965;DHT22;42923;53.220;6.528;2023-07-29T15:37:09;29.40;89.40
52965;DHT22;42923;53.220;6.528;2023-07-29T15:39:35;28.90;87.20